sensor_id;sensor_type;location;lat;lon;timestamp;P1;durP1;ratioP1;P2;durP2;ratioP2
11141;SDS011;5625;50.122;19.864;2023-06-22T00:00:34;11.27;;;10.17;;
11141;SDS011;5625;50.122;19.864;2023-06-22T00:03:02;10.40;;;9.50;;
11141;SDS011;5625;50.122;19.864;2023-06-22T00:05:34;10.67;;;9.20;;
11141;SDS011;5625;50.122;19.864;2023-06-22T00:08:02;10.43;;;9.37;;
11141;SDS011;5625;50.122;19.864;2023-06-22T00:10:31;10.27;;;9.27;;
11141;SDS011;5625;50.122;19.864;2023-06-22T00:13:01;10.27;;;9.27;;
11141;SDS011;5625;50.122;19.864;2023-06-22T00:15:30;10.00;;;9.00;;
11141;SDS011;5625;50.122;19.864;2023-06-22T00:17:58;10.60;;;8.47;;
11141;SDS011;5625;50.122;19.864;2023-06-22T00:20:26;11.47;;;8.70;;
11141;SDS011;5625;50.122;19.864;2023-06-22T00:22:58;11.50;;;8.67;;
11141;SDS011;5625;50.122;19.864;2023-06-22T00:25:26;9.40;;;8.50;;
11141;SDS011;5625;50.122;19.864;2023-06-22T00:27:54;10.03;;;8.40;;
11141;SDS011;5625;50.122;19.864;2023-06-22T00:30:22;10.33;;;8.83;;
11141;SDS011;5625;50.122;19.864;2023-06-22T00:32:50;10.03;;;8.50;;
11141;SDS011;5625;50.122;19.864;2023-06-22T00:35:18;9.90;;;8.70;;
11141;SDS011;5625;50.122;19.864;2023-06-22T00:37:46;10.53;;;9.23;;
11141;SDS011;5625;50.122;19.864;2023-06-22T00:40:16;9.67;;;8.73;;
11141;SDS011;5625;50.122;19.864;2023-06-22T00:42:47;10.40;;;8.47;;
11141;SDS011;5625;50.122;19.864;2023-06-22T00:45:16;9.20;;;8.40;;
11141;SDS011;5625;50.122;19.864;2023-06-22T00:47:44;9.63;;;8.63;;
11141;SDS011;5625;50.122;19.864;2023-06-22T00:50:13;9.13;;;8.33;;
11141;SDS011;5625;50.122;19.864;2023-06-22T00:52:48;9.57;;;8.63;;
11141;SDS011;5625;50.122;19.864;2023-06-22T00:55:19;9.27;;;8.47;;
11141;SDS011;5625;50.122;19.864;2023-06-22T00:57:49;10.43;;;8.50;;
11141;SDS011;5625;50.122;19.864;2023-06-22T01:00:17;10.63;;;7.73;;
11141;SDS011;5625;50.122;19.864;2023-06-22T01:02:46;9.47;;;8.57;;
11141;SDS011;5625;50.122;19.864;2023-06-22T01:05:18;8.80;;;7.90;;
11141;SDS011;5625;50.122;19.864;2023-06-22T01:07:54;9.10;;;8.17;;
11141;SDS011;5625;50.122;19.864;2023-06-22T01:10:33;11.60;;;8.10;;
11141;SDS011;5625;50.122;19.864;2023-06-22T01:13:09;8.83;;;7.97;;
11141;SDS011;5625;50.122;19.864;2023-06-22T01:15:44;10.13;;;8.03;;
11141;SDS011;5625;50.122;19.864;2023-06-22T01:18:15;8.90;;;8.00;;
11141;SDS011;5625;50.122;19.864;2023-06-22T01:20:45;8.73;;;7.90;;
11141;SDS011;5625;50.122;19.864;2023-06-22T01:23:17;11.83;;;8.47;;
11141;SDS011;5625;50.122;19.864;2023-06-22T01:25:57;8.77;;;7.80;;
11141;SDS011;5625;50.122;19.864;2023-06-22T01:28:38;8.93;;;7.97;;
11141;SDS011;5625;50.122;19.864;2023-06-22T01:31:16;9.93;;;8.60;;
11141;SDS011;5625;50.122;19.864;2023-06-22T01:33:48;9.40;;;7.80;;
11141;SDS011;5625;50.122;19.864;2023-06-22T01:36:18;8.67;;;7.67;;
11141;SDS011;5625;50.122;19.864;2023-06-22T01:38:48;9.07;;;7.67;;
11141;SDS011;5625;50.122;19.864;2023-06-22T01:41:17;9.13;;;7.03;;
11141;SDS011;5625;50.122;19.864;2023-06-22T01:43:48;8.83;;;7.77;;
11141;SDS011;5625;50.122;19.864;2023-06-22T01:46:17;10.43;;;7.63;;
11141;SDS011;5625;50.122;19.864;2023-06-22T01:48:46;9.27;;;7.87;;
11141;SDS011;5625;50.122;19.864;2023-06-22T01:51:15;8.93;;;7.50;;
11141;SDS011;5625;50.122;19.864;2023-06-22T01:53:43;8.90;;;7.90;;
11141;SDS011;5625;50.122;19.864;2023-06-22T01:56:12;11.37;;;8.20;;
11141;SDS011;5625;50.122;19.864;2023-06-22T01:58:41;11.23;;;7.60;;
11141;SDS011;5625;50.122;19.864;2023-06-22T02:01:17;10.17;;;8.10;;
11141;SDS011;5625;50.122;19.864;2023-06-22T02:03:52;12.63;;;8.20;;
11141;SDS011;5625;50.122;19.864;2023-06-22T02:10:10;8.67;;;7.47;;
11141;SDS011;5625;50.122;19.864;2023-06-22T02:12:41;8.77;;;7.30;;
11141;SDS011;5625;50.122;19.864;2023-06-22T02:15:10;8.97;;;8.03;;
11141;SDS011;5625;50.122;19.864;2023-06-22T02:17:42;9.33;;;8.10;;
11141;SDS011;5625;50.122;19.864;2023-06-22T02:20:12;11.73;;;8.20;;
11141;SDS011;5625;50.122;19.864;2023-06-22T02:22:40;9.30;;;7.53;;
11141;SDS011;5625;50.122;19.864;2023-06-22T02:25:08;10.17;;;7.70;;
11141;SDS011;5625;50.122;19.864;2023-06-22T02:27:36;9.73;;;7.40;;
11141;SDS011;5625;50.122;19.864;2023-06-22T02:30:07;9.63;;;7.80;;
11141;SDS011;5625;50.122;19.864;2023-06-22T02:32:36;11.43;;;8.60;;
11141;SDS011;5625;50.122;19.864;2023-06-22T02:35:10;8.90;;;7.40;;
11141;SDS011;5625;50.122;19.864;2023-06-22T02:37:38;8.43;;;7.57;;
11141;SDS011;5625;50.122;19.864;2023-06-22T02:40:08;9.93;;;7.67;;
11141;SDS011;5625;50.122;19.864;2023-06-22T02:42:37;8.80;;;7.17;;
11141;SDS011;5625;50.122;19.864;2023-06-22T02:45:07;11.00;;;7.70;;
11141;SDS011;5625;50.122;19.864;2023-06-22T02:47:35;10.03;;;7.37;;
11141;SDS011;5625;50.122;19.864;2023-06-22T02:50:04;7.70;;;7.00;;
11141;SDS011;5625;50.122;19.864;2023-06-22T02:52:34;11.37;;;7.20;;
11141;SDS011;5625;50.122;19.864;2023-06-22T02:55:02;10.27;;;7.33;;
11141;SDS011;5625;50.122;19.864;2023-06-22T02:57:30;8.77;;;7.07;;
11141;SDS011;5625;50.122;19.864;2023-06-22T02:59:58;8.37;;;7.40;;
11141;SDS011;5625;50.122;19.864;2023-06-22T03:02:27;11.00;;;6.60;;
11141;SDS011;5625;50.122;19.864;2023-06-22T03:04:55;10.40;;;6.77;;
11141;SDS011;5625;50.122;19.864;2023-06-22T03:07:23;8.23;;;6.53;;
11141;SDS011;5625;50.122;19.864;2023-06-22T03:09:56;8.67;;;6.53;;
11141;SDS011;5625;50.122;19.864;2023-06-22T03:12:24;6.83;;;6.13;;
11141;SDS011;5625;50.122;19.864;2023-06-22T03:14:52;9.40;;;6.67;;
11141;SDS011;5625;50.122;19.864;2023-06-22T03:17:20;9.00;;;6.20;;
11141;SDS011;5625;50.122;19.864;2023-06-22T03:19:48;7.83;;;6.30;;
11141;SDS011;5625;50.122;19.864;2023-06-22T03:22:16;9.10;;;6.40;;
11141;SDS011;5625;50.122;19.864;2023-06-22T03:24:44;10.47;;;6.50;;
11141;SDS011;5625;50.122;19.864;2023-06-22T03:27:13;7.87;;;6.63;;
11141;SDS011;5625;50.122;19.864;2023-06-22T03:29:41;9.77;;;6.67;;
11141;SDS011;5625;50.122;19.864;2023-06-22T03:32:10;8.27;;;6.50;;
11141;SDS011;5625;50.122;19.864;2023-06-22T03:34:38;9.10;;;5.97;;
11141;SDS011;5625;50.122;19.864;2023-06-22T03:37:07;8.50;;;6.30;;
11141;SDS011;5625;50.122;19.864;2023-06-22T03:39:35;8.67;;;5.90;;
11141;SDS011;5625;50.122;19.864;2023-06-22T03:42:03;6.30;;;5.63;;
11141;SDS011;5625;50.122;19.864;2023-06-22T03:44:33;7.80;;;6.33;;
11141;SDS011;5625;50.122;19.864;2023-06-22T03:47:02;7.37;;;5.77;;
11141;SDS011;5625;50.122;19.864;2023-06-22T03:49:33;8.30;;;5.50;;
11141;SDS011;5625;50.122;19.864;2023-06-22T03:52:01;8.67;;;5.87;;
11141;SDS011;5625;50.122;19.864;2023-06-22T03:54:30;7.33;;;5.63;;
11141;SDS011;5625;50.122;19.864;2023-06-22T03:56:58;9.20;;;6.10;;
11141;SDS011;5625;50.122;19.864;2023-06-22T03:59:26;6.43;;;5.77;;
11141;SDS011;5625;50.122;19.864;2023-06-22T04:01:55;7.67;;;5.67;;
11141;SDS011;5625;50.122;19.864;2023-06-22T04:04:23;8.43;;;5.67;;
11141;SDS011;5625;50.122;19.864;2023-06-22T04:06:52;8.13;;;5.37;;
11141;SDS011;5625;50.122;19.864;2023-06-22T04:09:20;8.07;;;5.23;;
11141;SDS011;5625;50.122;19.864;2023-06-22T04:11:48;7.53;;;5.47;;
11141;SDS011;5625;50.122;19.864;2023-06-22T04:14:16;7.43;;;5.57;;
11141;SDS011;5625;50.122;19.864;2023-06-22T04:16:44;8.23;;;5.40;;
11141;SDS011;5625;50.122;19.864;2023-06-22T04:19:17;7.30;;;5.80;;
11141;SDS011;5625;50.122;19.864;2023-06-22T04:21:45;9.27;;;5.80;;
11141;SDS011;5625;50.122;19.864;2023-06-22T04:24:14;6.87;;;4.77;;
11141;SDS011;5625;50.122;19.864;2023-06-22T04:26:43;8.93;;;5.20;;
11141;SDS011;5625;50.122;19.864;2023-06-22T04:29:11;8.17;;;5.03;;
11141;SDS011;5625;50.122;19.864;2023-06-22T04:31:40;8.23;;;4.87;;
11141;SDS011;5625;50.122;19.864;2023-06-22T04:34:08;7.67;;;4.93;;
11141;SDS011;5625;50.122;19.864;2023-06-22T04:36:38;9.53;;;5.60;;
11141;SDS011;5625;50.122;19.864;2023-06-22T04:39:08;7.17;;;4.83;;
11141;SDS011;5625;50.122;19.864;2023-06-22T04:41:37;7.00;;;4.93;;
11141;SDS011;5625;50.122;19.864;2023-06-22T04:44:09;9.37;;;5.00;;
11141;SDS011;5625;50.122;19.864;2023-06-22T04:46:37;7.70;;;4.87;;
11141;SDS011;5625;50.122;19.864;2023-06-22T04:49:07;8.07;;;4.57;;
11141;SDS011;5625;50.122;19.864;2023-06-22T04:51:39;6.33;;;4.97;;
11141;SDS011;5625;50.122;19.864;2023-06-22T04:54:08;8.17;;;5.10;;
11141;SDS011;5625;50.122;19.864;2023-06-22T04:56:37;6.53;;;4.93;;
11141;SDS011;5625;50.122;19.864;2023-06-22T04:59:07;8.53;;;5.10;;
11141;SDS011;5625;50.122;19.864;2023-06-22T05:01:39;6.27;;;4.80;;
11141;SDS011;5625;50.122;19.864;2023-06-22T05:04:07;8.27;;;4.80;;
11141;SDS011;5625;50.122;19.864;2023-06-22T05:06:36;6.93;;;4.90;;
11141;SDS011;5625;50.122;19.864;2023-06-22T05:09:07;7.23;;;4.63;;
11141;SDS011;5625;50.122;19.864;2023-06-22T05:11:36;10.03;;;4.87;;
11141;SDS011;5625;50.122;19.864;2023-06-22T05:14:04;8.07;;;4.87;;
11141;SDS011;5625;50.122;19.864;2023-06-22T05:16:32;5.97;;;4.83;;
11141;SDS011;5625;50.122;19.864;2023-06-22T05:19:00;6.77;;;4.80;;
11141;SDS011;5625;50.122;19.864;2023-06-22T05:21:29;7.10;;;4.87;;
11141;SDS011;5625;50.122;19.864;2023-06-22T05:23:58;7.33;;;4.80;;
11141;SDS011;5625;50.122;19.864;2023-06-22T05:26:30;7.50;;;5.10;;
11141;SDS011;5625;50.122;19.864;2023-06-22T05:28:59;9.13;;;5.47;;
11141;SDS011;5625;50.122;19.864;2023-06-22T05:31:29;11.87;;;5.23;;
11141;SDS011;5625;50.122;19.864;2023-06-22T05:33:57;11.60;;;5.53;;
11141;SDS011;5625;50.122;19.864;2023-06-22T05:36:27;6.37;;;5.10;;
11141;SDS011;5625;50.122;19.864;2023-06-22T05:38:56;7.13;;;4.73;;
11141;SDS011;5625;50.122;19.864;2023-06-22T05:41:24;10.73;;;5.87;;
11141;SDS011;5625;50.122;19.864;2023-06-22T05:43:57;6.53;;;5.03;;
11141;SDS011;5625;50.122;19.864;2023-06-22T05:46:25;7.77;;;5.97;;
11141;SDS011;5625;50.122;19.864;2023-06-22T05:48:53;7.77;;;5.57;;
11141;SDS011;5625;50.122;19.864;2023-06-22T05:51:21;9.90;;;6.30;;
11141;SDS011;5625;50.122;19.864;2023-06-22T05:53:49;13.38;;;5.93;;
11141;SDS011;5625;50.122;19.864;2023-06-22T05:56:17;8.82;;;5.65;;
11141;SDS011;5625;50.122;19.864;2023-06-22T05:58:45;9.88;;;5.55;;
11141;SDS011;5625;50.122;19.864;2023-06-22T06:01:15;8.88;;;6.50;;
11141;SDS011;5625;50.122;19.864;2023-06-22T06:03:43;10.55;;;7.22;;
11141;SDS011;5625;50.122;19.864;2023-06-22T06:06:11;10.52;;;6.18;;
11141;SDS011;5625;50.122;19.864;2023-06-22T06:08:39;9.48;;;6.47;;
11141;SDS011;5625;50.122;19.864;2023-06-22T06:11:08;10.10;;;6.57;;
11141;SDS011;5625;50.122;19.864;2023-06-22T06:13:36;7.00;;;6.20;;
11141;SDS011;5625;50.122;19.864;2023-06-22T06:16:04;7.97;;;6.07;;
11141;SDS011;5625;50.122;19.864;2023-06-22T06:18:33;11.55;;;6.78;;
11141;SDS011;5625;50.122;19.864;2023-06-22T06:21:03;10.18;;;6.85;;
11141;SDS011;5625;50.122;19.864;2023-06-22T06:23:31;8.43;;;6.68;;
11141;SDS011;5625;50.122;19.864;2023-06-22T06:25:59;9.48;;;7.13;;
11141;SDS011;5625;50.122;19.864;2023-06-22T06:28:28;8.77;;;7.03;;
11141;SDS011;5625;50.122;19.864;2023-06-22T06:30:56;9.43;;;7.18;;
11141;SDS011;5625;50.122;19.864;2023-06-22T06:33:24;11.63;;;7.90;;
11141;SDS011;5625;50.122;19.864;2023-06-22T06:35:55;12.15;;;9.30;;
11141;SDS011;5625;50.122;19.864;2023-06-22T06:38:24;13.35;;;8.38;;
11141;SDS011;5625;50.122;19.864;2023-06-22T06:40:52;12.30;;;9.27;;
11141;SDS011;5625;50.122;19.864;2023-06-22T06:43:20;13.32;;;9.27;;
11141;SDS011;5625;50.122;19.864;2023-06-22T06:45:49;14.45;;;8.65;;
11141;SDS011;5625;50.122;19.864;2023-06-22T06:48:18;13.13;;;9.32;;
11141;SDS011;5625;50.122;19.864;2023-06-22T06:50:46;10.68;;;9.65;;
11141;SDS011;5625;50.122;19.864;2023-06-22T06:53:15;10.93;;;9.82;;
11141;SDS011;5625;50.122;19.864;2023-06-22T06:55:43;11.90;;;10.43;;
11141;SDS011;5625;50.122;19.864;2023-06-22T06:58:12;11.63;;;10.43;;
11141;SDS011;5625;50.122;19.864;2023-06-22T07:00:41;13.85;;;12.45;;
11141;SDS011;5625;50.122;19.864;2023-06-22T07:03:09;14.13;;;12.65;;
11141;SDS011;5625;50.122;19.864;2023-06-22T07:05:37;16.75;;;15.18;;
11141;SDS011;5625;50.122;19.864;2023-06-22T07:08:05;17.02;;;15.52;;
11141;SDS011;5625;50.122;19.864;2023-06-22T07:10:35;17.08;;;15.52;;
11141;SDS011;5625;50.122;19.864;2023-06-22T07:13:03;17.13;;;15.65;;
11141;SDS011;5625;50.122;19.864;2023-06-22T07:15:31;16.73;;;15.15;;
11141;SDS011;5625;50.122;19.864;2023-06-22T07:17:59;17.25;;;15.70;;
11141;SDS011;5625;50.122;19.864;2023-06-22T07:20:27;16.83;;;15.43;;
11141;SDS011;5625;50.122;19.864;2023-06-22T07:22:55;16.85;;;15.10;;
11141;SDS011;5625;50.122;19.864;2023-06-22T07:25:24;16.38;;;14.90;;
11141;SDS011;5625;50.122;19.864;2023-06-22T07:28:01;16.88;;;15.27;;
11141;SDS011;5625;50.122;19.864;2023-06-22T07:30:30;17.17;;;15.77;;
11141;SDS011;5625;50.122;19.864;2023-06-22T07:33:00;16.65;;;14.95;;
11141;SDS011;5625;50.122;19.864;2023-06-22T07:35:30;16.10;;;14.70;;
11141;SDS011;5625;50.122;19.864;2023-06-22T07:37:59;15.77;;;14.48;;
11141;SDS011;5625;50.122;19.864;2023-06-22T07:40:31;15.82;;;14.35;;
11141;SDS011;5625;50.122;19.864;2023-06-22T07:43:01;17.35;;;15.82;;
11141;SDS011;5625;50.122;19.864;2023-06-22T07:45:30;16.15;;;14.52;;
11141;SDS011;5625;50.122;19.864;2023-06-22T07:47:59;16.38;;;14.85;;
11141;SDS011;5625;50.122;19.864;2023-06-22T07:50:27;15.68;;;14.18;;
11141;SDS011;5625;50.122;19.864;2023-06-22T07:52:56;15.30;;;13.90;;
11141;SDS011;5625;50.122;19.864;2023-06-22T07:55:24;14.48;;;13.27;;
11141;SDS011;5625;50.122;19.864;2023-06-22T07:57:53;14.05;;;12.77;;
11141;SDS011;5625;50.122;19.864;2023-06-22T08:00:22;14.38;;;13.07;;
11141;SDS011;5625;50.122;19.864;2023-06-22T08:02:50;12.73;;;11.80;;
11141;SDS011;5625;50.122;19.864;2023-06-22T08:05:19;13.57;;;12.27;;
11141;SDS011;5625;50.122;19.864;2023-06-22T08:07:48;13.48;;;12.38;;
11141;SDS011;5625;50.122;19.864;2023-06-22T08:10:17;12.07;;;11.00;;
11141;SDS011;5625;50.122;19.864;2023-06-22T08:12:46;11.88;;;11.05;;
11141;SDS011;5625;50.122;19.864;2023-06-22T08:15:14;12.15;;;11.25;;
11141;SDS011;5625;50.122;19.864;2023-06-22T08:17:44;10.85;;;9.90;;
11141;SDS011;5625;50.122;19.864;2023-06-22T08:20:12;10.65;;;9.85;;
11141;SDS011;5625;50.122;19.864;2023-06-22T08:22:41;10.77;;;9.98;;
11141;SDS011;5625;50.122;19.864;2023-06-22T08:25:10;11.23;;;10.30;;
11141;SDS011;5625;50.122;19.864;2023-06-22T08:27:39;10.05;;;9.23;;
11141;SDS011;5625;50.122;19.864;2023-06-22T08:30:09;10.23;;;8.10;;
11141;SDS011;5625;50.122;19.864;2023-06-22T08:32:38;9.02;;;8.10;;
11141;SDS011;5625;50.122;19.864;2023-06-22T08:35:08;9.23;;;8.52;;
11141;SDS011;5625;50.122;19.864;2023-06-22T08:37:36;8.77;;;7.97;;
11141;SDS011;5625;50.122;19.864;2023-06-22T08:40:06;9.00;;;8.30;;
11141;SDS011;5625;50.122;19.864;2023-06-22T08:42:36;8.15;;;7.55;;
11141;SDS011;5625;50.122;19.864;2023-06-22T08:45:04;8.80;;;8.10;;
11141;SDS011;5625;50.122;19.864;2023-06-22T08:47:36;8.23;;;7.45;;
11141;SDS011;5625;50.122;19.864;2023-06-22T08:50:05;8.23;;;7.50;;
11141;SDS011;5625;50.122;19.864;2023-06-22T08:52:36;7.97;;;7.38;;
11141;SDS011;5625;50.122;19.864;2023-06-22T08:55:04;7.18;;;6.68;;
11141;SDS011;5625;50.122;19.864;2023-06-22T08:57:36;7.70;;;7.20;;
11141;SDS011;5625;50.122;19.864;2023-06-22T09:00:06;8.25;;;7.50;;
11141;SDS011;5625;50.122;19.864;2023-06-22T09:02:42;7.90;;;7.30;;
11141;SDS011;5625;50.122;19.864;2023-06-22T09:05:14;7.32;;;6.72;;
11141;SDS011;5625;50.122;19.864;2023-06-22T09:07:42;8.15;;;7.55;;
11141;SDS011;5625;50.122;19.864;2023-06-22T09:10:12;7.00;;;6.50;;
11141;SDS011;5625;50.122;19.864;2023-06-22T09:12:40;7.45;;;6.80;;
11141;SDS011;5625;50.122;19.864;2023-06-22T09:15:09;6.95;;;6.35;;
11141;SDS011;5625;50.122;19.864;2023-06-22T09:17:52;7.07;;;6.57;;
11141;SDS011;5625;50.122;19.864;2023-06-22T09:20:23;7.53;;;6.93;;
11141;SDS011;5625;50.122;19.864;2023-06-22T09:22:51;7.18;;;6.57;;
11141;SDS011;5625;50.122;19.864;2023-06-22T09:25:19;7.80;;;6.45;;
11141;SDS011;5625;50.122;19.864;2023-06-22T09:27:47;7.43;;;6.72;;
11141;SDS011;5625;50.122;19.864;2023-06-22T09:30:15;7.03;;;6.40;;
11141;SDS011;5625;50.122;19.864;2023-06-22T09:32:43;7.15;;;6.28;;
11141;SDS011;5625;50.122;19.864;2023-06-22T09:35:13;6.00;;;5.60;;
11141;SDS011;5625;50.122;19.864;2023-06-22T09:37:42;6.88;;;6.30;;
11141;SDS011;5625;50.122;19.864;2023-06-22T09:40:11;6.25;;;5.85;;
11141;SDS011;5625;50.122;19.864;2023-06-22T09:42:42;6.72;;;6.25;;
11141;SDS011;5625;50.122;19.864;2023-06-22T09:45:10;6.90;;;6.30;;
11141;SDS011;5625;50.122;19.864;2023-06-22T09:47:38;7.35;;;6.75;;
11141;SDS011;5625;50.122;19.864;2023-06-22T09:50:07;7.20;;;6.70;;
11141;SDS011;5625;50.122;19.864;2023-06-22T09:52:35;6.75;;;6.25;;
11141;SDS011;5625;50.122;19.864;2023-06-22T09:55:08;6.50;;;6.00;;
11141;SDS011;5625;50.122;19.864;2023-06-22T09:57:36;6.10;;;5.60;;
11141;SDS011;5625;50.122;19.864;2023-06-22T10:00:05;6.15;;;5.65;;
11141;SDS011;5625;50.122;19.864;2023-06-22T10:02:36;6.40;;;5.90;;
11141;SDS011;5625;50.122;19.864;2023-06-22T10:05:05;6.43;;;5.93;;
11141;SDS011;5625;50.122;19.864;2023-06-22T10:07:34;6.10;;;5.70;;
11141;SDS011;5625;50.122;19.864;2023-06-22T10:10:08;6.20;;;5.70;;
11141;SDS011;5625;50.122;19.864;2023-06-22T10:12:36;5.80;;;5.40;;
11141;SDS011;5625;50.122;19.864;2023-06-22T10:15:08;5.97;;;5.57;;
11141;SDS011;5625;50.122;19.864;2023-06-22T10:17:38;6.05;;;5.55;;
11141;SDS011;5625;50.122;19.864;2023-06-22T10:20:09;5.50;;;5.00;;
11141;SDS011;5625;50.122;19.864;2023-06-22T10:22:40;5.70;;;5.20;;
11141;SDS011;5625;50.122;19.864;2023-06-22T10:25:12;5.80;;;5.40;;
11141;SDS011;5625;50.122;19.864;2023-06-22T10:27:43;5.40;;;5.00;;
11141;SDS011;5625;50.122;19.864;2023-06-22T10:30:14;5.22;;;4.82;;
11141;SDS011;5625;50.122;19.864;2023-06-22T10:32:43;5.22;;;4.93;;
11141;SDS011;5625;50.122;19.864;2023-06-22T10:35:11;5.85;;;5.20;;
11141;SDS011;5625;50.122;19.864;2023-06-22T10:37:42;5.65;;;5.20;;
11141;SDS011;5625;50.122;19.864;2023-06-22T10:40:13;7.03;;;5.25;;
11141;SDS011;5625;50.122;19.864;2023-06-22T10:42:42;5.10;;;4.70;;
11141;SDS011;5625;50.122;19.864;2023-06-22T10:45:12;5.55;;;5.07;;
11141;SDS011;5625;50.122;19.864;2023-06-22T10:47:41;5.78;;;5.38;;
11141;SDS011;5625;50.122;19.864;2023-06-22T10:50:09;5.47;;;5.00;;
11141;SDS011;5625;50.122;19.864;2023-06-22T10:52:38;5.20;;;4.88;;
11141;SDS011;5625;50.122;19.864;2023-06-22T10:55:08;6.18;;;4.78;;
11141;SDS011;5625;50.122;19.864;2023-06-22T10:57:38;4.97;;;4.57;;
11141;SDS011;5625;50.122;19.864;2023-06-22T11:00:10;5.95;;;5.25;;
11141;SDS011;5625;50.122;19.864;2023-06-22T11:02:38;5.30;;;4.90;;
11141;SDS011;5625;50.122;19.864;2023-06-22T11:05:07;5.50;;;5.00;;
11141;SDS011;5625;50.122;19.864;2023-06-22T11:07:36;5.20;;;4.80;;
11141;SDS011;5625;50.122;19.864;2023-06-22T11:10:09;5.15;;;4.70;;
11141;SDS011;5625;50.122;19.864;2023-06-22T11:12:40;6.32;;;4.88;;
11141;SDS011;5625;50.122;19.864;2023-06-22T11:15:09;5.15;;;4.75;;
11141;SDS011;5625;50.122;19.864;2023-06-22T11:17:37;5.50;;;5.07;;
11141;SDS011;5625;50.122;19.864;2023-06-22T11:20:05;5.22;;;4.72;;
11141;SDS011;5625;50.122;19.864;2023-06-22T11:22:37;4.95;;;4.55;;
11141;SDS011;5625;50.122;19.864;2023-06-22T11:25:06;4.78;;;4.47;;
11141;SDS011;5625;50.122;19.864;2023-06-22T11:27:35;4.68;;;4.38;;
11141;SDS011;5625;50.122;19.864;2023-06-22T11:30:05;5.35;;;4.85;;
11141;SDS011;5625;50.122;19.864;2023-06-22T11:32:34;5.20;;;4.80;;
11141;SDS011;5625;50.122;19.864;2023-06-22T11:35:03;4.68;;;4.20;;
11141;SDS011;5625;50.122;19.864;2023-06-22T11:37:31;4.53;;;4.22;;
11141;SDS011;5625;50.122;19.864;2023-06-22T11:39:59;5.35;;;4.85;;
11141;SDS011;5625;50.122;19.864;2023-06-22T11:42:33;5.25;;;4.75;;
11141;SDS011;5625;50.122;19.864;2023-06-22T11:45:01;5.05;;;4.65;;
11141;SDS011;5625;50.122;19.864;2023-06-22T11:47:34;4.63;;;4.22;;
11141;SDS011;5625;50.122;19.864;2023-06-22T11:50:06;4.88;;;4.47;;
11141;SDS011;5625;50.122;19.864;2023-06-22T11:52:36;4.82;;;4.53;;
11141;SDS011;5625;50.122;19.864;2023-06-22T11:55:05;4.97;;;4.47;;
11141;SDS011;5625;50.122;19.864;2023-06-22T11:57:34;5.03;;;4.68;;
11141;SDS011;5625;50.122;19.864;2023-06-22T12:00:03;4.70;;;4.30;;
11141;SDS011;5625;50.122;19.864;2023-06-22T12:02:44;4.55;;;4.20;;
11141;SDS011;5625;50.122;19.864;2023-06-22T12:05:15;4.80;;;4.47;;
11141;SDS011;5625;50.122;19.864;2023-06-22T12:07:43;4.90;;;4.50;;
11141;SDS011;5625;50.122;19.864;2023-06-22T12:10:11;4.97;;;4.60;;
11141;SDS011;5625;50.122;19.864;2023-06-22T12:12:39;4.65;;;4.25;;
11141;SDS011;5625;50.122;19.864;2023-06-22T12:15:08;4.72;;;4.38;;
11141;SDS011;5625;50.122;19.864;2023-06-22T12:17:37;4.72;;;4.32;;
11141;SDS011;5625;50.122;19.864;2023-06-22T12:20:07;6.00;;;4.82;;
11141;SDS011;5625;50.122;19.864;2023-06-22T12:22:36;7.82;;;4.30;;
11141;SDS011;5625;50.122;19.864;2023-06-22T12:25:05;5.07;;;4.68;;
11141;SDS011;5625;50.122;19.864;2023-06-22T12:27:33;4.65;;;4.35;;
11141;SDS011;5625;50.122;19.864;2023-06-22T12:30:02;5.13;;;4.60;;
11141;SDS011;5625;50.122;19.864;2023-06-22T12:32:31;5.55;;;5.15;;
11141;SDS011;5625;50.122;19.864;2023-06-22T12:35:02;4.85;;;4.55;;
11141;SDS011;5625;50.122;19.864;2023-06-22T12:37:31;7.35;;;4.95;;
11141;SDS011;5625;50.122;19.864;2023-06-22T12:40:02;8.35;;;4.53;;
11141;SDS011;5625;50.122;19.864;2023-06-22T12:42:31;8.75;;;4.95;;
11141;SDS011;5625;50.122;19.864;2023-06-22T12:44:59;6.00;;;4.93;;
11141;SDS011;5625;50.122;19.864;2023-06-22T12:47:27;5.22;;;4.82;;
11141;SDS011;5625;50.122;19.864;2023-06-22T12:49:55;5.20;;;4.80;;
11141;SDS011;5625;50.122;19.864;2023-06-22T12:52:23;5.00;;;4.50;;
11141;SDS011;5625;50.122;19.864;2023-06-22T12:54:52;5.25;;;4.78;;
11141;SDS011;5625;50.122;19.864;2023-06-22T12:57:21;6.57;;;4.85;;
11141;SDS011;5625;50.122;19.864;2023-06-22T12:59:49;4.95;;;4.65;;
11141;SDS011;5625;50.122;19.864;2023-06-22T13:02:17;5.88;;;4.80;;
11141;SDS011;5625;50.122;19.864;2023-06-22T13:04:45;5.20;;;4.75;;
11141;SDS011;5625;50.122;19.864;2023-06-22T13:07:13;4.90;;;4.47;;
11141;SDS011;5625;50.122;19.864;2023-06-22T13:09:48;7.55;;;5.68;;
11141;SDS011;5625;50.122;19.864;2023-06-22T13:12:20;5.20;;;4.80;;
11141;SDS011;5625;50.122;19.864;2023-06-22T13:14:48;4.95;;;4.55;;
11141;SDS011;5625;50.122;19.864;2023-06-22T13:17:16;4.72;;;4.35;;
11141;SDS011;5625;50.122;19.864;2023-06-22T13:19:44;4.93;;;4.57;;
11141;SDS011;5625;50.122;19.864;2023-06-22T13:22:28;5.82;;;4.95;;
11141;SDS011;5625;50.122;19.864;2023-06-22T13:24:58;4.93;;;4.55;;
11141;SDS011;5625;50.122;19.864;2023-06-22T13:27:28;4.88;;;4.38;;
11141;SDS011;5625;50.122;19.864;2023-06-22T13:29:56;5.30;;;4.90;;
11141;SDS011;5625;50.122;19.864;2023-06-22T13:32:24;6.43;;;4.90;;
11141;SDS011;5625;50.122;19.864;2023-06-22T13:34:53;5.55;;;4.85;;
11141;SDS011;5625;50.122;19.864;2023-06-22T13:37:21;5.55;;;5.20;;
11141;SDS011;5625;50.122;19.864;2023-06-22T13:39:49;4.40;;;4.00;;
11141;SDS011;5625;50.122;19.864;2023-06-22T13:42:17;5.28;;;4.82;;
11141;SDS011;5625;50.122;19.864;2023-06-22T13:44:47;5.50;;;5.10;;
11141;SDS011;5625;50.122;19.864;2023-06-22T13:47:15;4.80;;;4.50;;
11141;SDS011;5625;50.122;19.864;2023-06-22T13:49:43;5.75;;;5.35;;
11141;SDS011;5625;50.122;19.864;2023-06-22T13:52:13;6.07;;;5.00;;
11141;SDS011;5625;50.122;19.864;2023-06-22T13:54:41;5.45;;;5.05;;
11141;SDS011;5625;50.122;19.864;2023-06-22T13:57:09;7.55;;;5.25;;
11141;SDS011;5625;50.122;19.864;2023-06-22T13:59:37;5.57;;;5.00;;
11141;SDS011;5625;50.122;19.864;2023-06-22T14:02:07;5.82;;;5.43;;
11141;SDS011;5625;50.122;19.864;2023-06-22T14:04:35;5.55;;;4.93;;
11141;SDS011;5625;50.122;19.864;2023-06-22T14:07:03;5.45;;;5.05;;
11141;SDS011;5625;50.122;19.864;2023-06-22T14:09:32;5.80;;;5.30;;
11141;SDS011;5625;50.122;19.864;2023-06-22T14:12:02;5.70;;;5.18;;
11141;SDS011;5625;50.122;19.864;2023-06-22T14:14:31;7.85;;;4.95;;
11141;SDS011;5625;50.122;19.864;2023-06-22T14:16:59;5.40;;;4.90;;
11141;SDS011;5625;50.122;19.864;2023-06-22T14:19:29;5.55;;;5.15;;
11141;SDS011;5625;50.122;19.864;2023-06-22T14:21:57;5.75;;;5.25;;
11141;SDS011;5625;50.122;19.864;2023-06-22T14:24:25;5.70;;;5.20;;
11141;SDS011;5625;50.122;19.864;2023-06-22T14:26:56;6.47;;;5.88;;
11141;SDS011;5625;50.122;19.864;2023-06-22T14:29:24;8.45;;;5.20;;
11141;SDS011;5625;50.122;19.864;2023-06-22T14:31:53;5.90;;;5.50;;
11141;SDS011;5625;50.122;19.864;2023-06-22T14:34:21;5.80;;;5.30;;
11141;SDS011;5625;50.122;19.864;2023-06-22T14:36:50;5.88;;;5.38;;
11141;SDS011;5625;50.122;19.864;2023-06-22T14:39:18;5.93;;;5.53;;
11141;SDS011;5625;50.122;19.864;2023-06-22T14:41:47;5.45;;;4.95;;
11141;SDS011;5625;50.122;19.864;2023-06-22T14:44:15;6.15;;;5.65;;
11141;SDS011;5625;50.122;19.864;2023-06-22T14:46:43;5.50;;;5.10;;
11141;SDS011;5625;50.122;19.864;2023-06-22T14:49:11;6.25;;;5.75;;
11141;SDS011;5625;50.122;19.864;2023-06-22T14:51:39;6.40;;;5.70;;
11141;SDS011;5625;50.122;19.864;2023-06-22T14:54:08;5.80;;;5.38;;
11141;SDS011;5625;50.122;19.864;2023-06-22T14:56:36;5.38;;;5.00;;
11141;SDS011;5625;50.122;19.864;2023-06-22T14:59:04;6.00;;;5.50;;